sensor_id;sensor_type;location;lat;lon;timestamp;P1;durP1;ratioP1;P2;durP2;ratioP2
1831;SDS011;1680;48.106;11.708;2024-01-27T00:01:02;2.40;;;1.90;;
1831;SDS011;1680;48.106;11.708;2024-01-27T00:03:30;1.50;;;1.40;;
1831;SDS011;1680;48.106;11.708;2024-01-27T00:05:57;2.88;;;2.00;;
1831;SDS011;1680;48.106;11.708;2024-01-27T00:08:25;4.25;;;2.40;;
1831;SDS011;1680;48.106;11.708;2024-01-27T00:10:52;4.10;;;2.50;;
1831;SDS011;1680;48.106;11.708;2024-01-27T00:13:20;3.20;;;2.05;;
1831;SDS011;1680;48.106;11.708;2024-01-27T00:15:47;3.13;;;2.50;;
1831;SDS011;1680;48.106;11.708;2024-01-27T00:18:15;3.63;;;2.35;;
1831;SDS011;1680;48.106;11.708;2024-01-27T00:20:43;2.30;;;1.80;;
1831;SDS011;1680;48.106;11.708;2024-01-27T00:23:10;2.72;;;2.10;;
1831;SDS011;1680;48.106;11.708;2024-01-27T00:25:41;2.90;;;2.13;;
1831;SDS011;1680;48.106;11.708;2024-01-27T00:28:08;4.95;;;2.33;;
1831;SDS011;1680;48.106;11.708;2024-01-27T00:30:35;2.67;;;2.08;;
1831;SDS011;1680;48.106;11.708;2024-01-27T00:33:02;3.67;;;2.30;;
1831;SDS011;1680;48.106;11.708;2024-01-27T00:35:29;3.13;;;2.40;;
1831;SDS011;1680;48.106;11.708;2024-01-27T00:37:57;3.30;;;2.10;;
1831;SDS011;1680;48.106;11.708;2024-01-27T00:40:24;3.40;;;2.58;;
1831;SDS011;1680;48.106;11.708;2024-01-27T00:42:53;3.40;;;2.50;;
1831;SDS011;1680;48.106;11.708;2024-01-27T00:45:21;3.83;;;2.45;;
1831;SDS011;1680;48.106;11.708;2024-01-27T00:47:49;3.22;;;2.35;;
1831;SDS011;1680;48.106;11.708;2024-01-27T00:50:16;4.95;;;2.65;;
1831;SDS011;1680;48.106;11.708;2024-01-27T00:52:43;4.80;;;3.25;;
1831;SDS011;1680;48.106;11.708;2024-01-27T00:55:11;9.50;;;3.45;;
1831;SDS011;1680;48.106;11.708;2024-01-27T00:57:39;5.45;;;3.33;;
1831;SDS011;1680;48.106;11.708;2024-01-27T01:00:08;4.63;;;3.03;;
1831;SDS011;1680;48.106;11.708;2024-01-27T01:02:37;4.55;;;3.03;;
1831;SDS011;1680;48.106;11.708;2024-01-27T01:05:07;4.20;;;3.50;;
1831;SDS011;1680;48.106;11.708;2024-01-27T01:07:34;5.15;;;3.40;;
1831;SDS011;1680;48.106;11.708;2024-01-27T01:10:01;6.35;;;4.15;;
1831;SDS011;1680;48.106;11.708;2024-01-27T01:12:29;5.88;;;3.95;;
1831;SDS011;1680;48.106;11.708;2024-01-27T01:14:59;5.47;;;3.97;;
1831;SDS011;1680;48.106;11.708;2024-01-27T01:17:28;6.28;;;4.75;;
1831;SDS011;1680;48.106;11.708;2024-01-27T01:19:56;6.68;;;4.35;;
1831;SDS011;1680;48.106;11.708;2024-01-27T01:22:25;6.80;;;4.13;;
1831;SDS011;1680;48.106;11.708;2024-01-27T01:24:59;5.50;;;3.83;;
1831;SDS011;1680;48.106;11.708;2024-01-27T01:27:27;5.88;;;3.40;;
1831;SDS011;1680;48.106;11.708;2024-01-27T01:29:55;6.35;;;3.33;;
1831;SDS011;1680;48.106;11.708;2024-01-27T01:32:23;5.50;;;2.75;;
1831;SDS011;1680;48.106;11.708;2024-01-27T01:34:52;4.18;;;2.80;;
1831;SDS011;1680;48.106;11.708;2024-01-27T01:37:19;3.80;;;2.60;;
1831;SDS011;1680;48.106;11.708;2024-01-27T01:39:46;3.30;;;2.45;;
1831;SDS011;1680;48.106;11.708;2024-01-27T01:42:13;3.85;;;2.50;;
1831;SDS011;1680;48.106;11.708;2024-01-27T01:44:40;5.53;;;2.67;;
1831;SDS011;1680;48.106;11.708;2024-01-27T01:47:08;7.80;;;2.63;;
1831;SDS011;1680;48.106;11.708;2024-01-27T01:49:35;2.67;;;2.05;;
1831;SDS011;1680;48.106;11.708;2024-01-27T01:52:05;2.63;;;1.85;;
1831;SDS011;1680;48.106;11.708;2024-01-27T01:54:32;3.08;;;1.95;;
1831;SDS011;1680;48.106;11.708;2024-01-27T01:57:00;2.05;;;1.85;;
1831;SDS011;1680;48.106;11.708;2024-01-27T01:59:27;4.18;;;2.05;;
1831;SDS011;1680;48.106;11.708;2024-01-27T02:01:55;4.38;;;1.90;;
1831;SDS011;1680;48.106;11.708;2024-01-27T02:04:22;4.15;;;2.10;;
1831;SDS011;1680;48.106;11.708;2024-01-27T02:06:51;2.67;;;2.05;;
1831;SDS011;1680;48.106;11.708;2024-01-27T02:09:20;2.95;;;1.80;;
1831;SDS011;1680;48.106;11.708;2024-01-27T02:11:47;3.88;;;2.33;;
1831;SDS011;1680;48.106;11.708;2024-01-27T02:14:14;1.92;;;1.83;;
1831;SDS011;1680;48.106;11.708;2024-01-27T02:16:42;3.40;;;2.13;;
1831;SDS011;1680;48.106;11.708;2024-01-27T02:19:10;2.53;;;2.08;;
1831;SDS011;1680;48.106;11.708;2024-01-27T02:21:38;2.58;;;2.10;;
1831;SDS011;1680;48.106;11.708;2024-01-27T02:24:08;2.90;;;2.30;;
1831;SDS011;1680;48.106;11.708;2024-01-27T02:26:38;4.10;;;2.03;;
1831;SDS011;1680;48.106;11.708;2024-01-27T02:29:05;2.47;;;2.00;;
1831;SDS011;1680;48.106;11.708;2024-01-27T02:31:33;1.90;;;1.80;;
1831;SDS011;1680;48.106;11.708;2024-01-27T02:34:02;2.55;;;1.70;;
1831;SDS011;1680;48.106;11.708;2024-01-27T02:36:29;3.72;;;1.80;;
1831;SDS011;1680;48.106;11.708;2024-01-27T02:38:56;4.72;;;2.10;;
1831;SDS011;1680;48.106;11.708;2024-01-27T02:41:24;4.03;;;2.22;;
1831;SDS011;1680;48.106;11.708;2024-01-27T02:43:52;2.53;;;2.10;;
1831;SDS011;1680;48.106;11.708;2024-01-27T02:46:22;3.78;;;2.17;;
1831;SDS011;1680;48.106;11.708;2024-01-27T02:48:49;2.72;;;2.22;;
1831;SDS011;1680;48.106;11.708;2024-01-27T02:51:18;2.63;;;2.05;;
1831;SDS011;1680;48.106;11.708;2024-01-27T02:53:46;3.63;;;1.90;;
1831;SDS011;1680;48.106;11.708;2024-01-27T02:56:15;3.15;;;1.90;;
1831;SDS011;1680;48.106;11.708;2024-01-27T02:58:44;2.80;;;1.80;;
1831;SDS011;1680;48.106;11.708;2024-01-27T03:01:13;2.83;;;2.03;;
1831;SDS011;1680;48.106;11.708;2024-01-27T03:03:40;4.97;;;2.50;;
1831;SDS011;1680;48.106;11.708;2024-01-27T03:06:08;3.05;;;1.70;;
1831;SDS011;1680;48.106;11.708;2024-01-27T03:08:35;2.40;;;1.90;;
1831;SDS011;1680;48.106;11.708;2024-01-27T03:11:02;2.72;;;2.13;;
1831;SDS011;1680;48.106;11.708;2024-01-27T03:13:29;2.10;;;1.75;;
1831;SDS011;1680;48.106;11.708;2024-01-27T03:15:58;2.90;;;2.20;;
1831;SDS011;1680;48.106;11.708;2024-01-27T03:18:25;3.75;;;2.35;;
1831;SDS011;1680;48.106;11.708;2024-01-27T03:20:52;4.25;;;1.95;;
1831;SDS011;1680;48.106;11.708;2024-01-27T03:23:20;4.50;;;2.03;;
1831;SDS011;1680;48.106;11.708;2024-01-27T03:25:47;2.22;;;1.65;;
1831;SDS011;1680;48.106;11.708;2024-01-27T03:28:14;3.38;;;1.85;;
1831;SDS011;1680;48.106;11.708;2024-01-27T03:30:42;2.13;;;1.92;;
1831;SDS011;1680;48.106;11.708;2024-01-27T03:33:10;3.58;;;2.00;;
1831;SDS011;1680;48.106;11.708;2024-01-27T03:35:38;4.47;;;2.00;;
1831;SDS011;1680;48.106;11.708;2024-01-27T03:38:06;2.05;;;1.83;;
1831;SDS011;1680;48.106;11.708;2024-01-27T03:40:33;4.60;;;1.90;;
1831;SDS011;1680;48.106;11.708;2024-01-27T03:43:00;4.90;;;1.83;;
1831;SDS011;1680;48.106;11.708;2024-01-27T03:45:27;2.00;;;1.90;;
1831;SDS011;1680;48.106;11.708;2024-01-27T03:47:56;2.22;;;1.80;;
1831;SDS011;1680;48.106;11.708;2024-01-27T03:50:25;3.40;;;1.80;;
1831;SDS011;1680;48.106;11.708;2024-01-27T03:52:52;3.10;;;1.77;;
1831;SDS011;1680;48.106;11.708;2024-01-27T03:55:19;3.40;;;2.03;;
1831;SDS011;1680;48.106;11.708;2024-01-27T03:57:47;2.15;;;1.80;;
1831;SDS011;1680;48.106;11.708;2024-01-27T04:00:14;3.08;;;2.10;;
1831;SDS011;1680;48.106;11.708;2024-01-27T04:02:42;2.67;;;1.77;;
1831;SDS011;1680;48.106;11.708;2024-01-27T04:05:09;2.55;;;1.85;;
1831;SDS011;1680;48.106;11.708;2024-01-27T04:07:38;3.28;;;2.30;;
1831;SDS011;1680;48.106;11.708;2024-01-27T04:10:06;1.80;;;1.70;;
1831;SDS011;1680;48.106;11.708;2024-01-27T04:12:34;4.57;;;1.90;;
1831;SDS011;1680;48.106;11.708;2024-01-27T04:15:01;5.10;;;2.05;;
1831;SDS011;1680;48.106;11.708;2024-01-27T04:17:29;4.20;;;2.00;;
1831;SDS011;1680;48.106;11.708;2024-01-27T04:19:56;4.97;;;1.98;;
1831;SDS011;1680;48.106;11.708;2024-01-27T04:22:23;4.30;;;2.10;;
1831;SDS011;1680;48.106;11.708;2024-01-27T04:24:52;4.50;;;2.40;;
1831;SDS011;1680;48.106;11.708;2024-01-27T04:27:19;3.35;;;1.80;;
1831;SDS011;1680;48.106;11.708;2024-01-27T04:29:47;1.83;;;1.60;;
1831;SDS011;1680;48.106;11.708;2024-01-27T04:32:15;2.20;;;1.98;;
1831;SDS011;1680;48.106;11.708;2024-01-27T04:34:46;3.10;;;1.85;;
1831;SDS011;1680;48.106;11.708;2024-01-27T04:37:13;4.20;;;1.90;;
1831;SDS011;1680;48.106;11.708;2024-01-27T04:39:40;4.45;;;2.03;;
1831;SDS011;1680;48.106;11.708;2024-01-27T04:42:09;3.75;;;2.20;;
1831;SDS011;1680;48.106;11.708;2024-01-27T04:44:39;1.98;;;1.80;;
1831;SDS011;1680;48.106;11.708;2024-01-27T04:47:07;3.85;;;2.22;;
1831;SDS011;1680;48.106;11.708;2024-01-27T04:49:34;2.45;;;1.70;;
1831;SDS011;1680;48.106;11.708;2024-01-27T04:52:09;2.17;;;1.95;;
1831;SDS011;1680;48.106;11.708;2024-01-27T04:54:36;2.67;;;2.13;;
1831;SDS011;1680;48.106;11.708;2024-01-27T04:57:03;2.45;;;1.88;;
1831;SDS011;1680;48.106;11.708;2024-01-27T04:59:42;2.38;;;2.00;;
1831;SDS011;1680;48.106;11.708;2024-01-27T05:02:10;3.22;;;1.90;;
1831;SDS011;1680;48.106;11.708;2024-01-27T05:04:37;3.55;;;1.85;;
1831;SDS011;1680;48.106;11.708;2024-01-27T05:07:04;4.47;;;2.20;;
1831;SDS011;1680;48.106;11.708;2024-01-27T05:09:33;5.13;;;2.22;;
1831;SDS011;1680;48.106;11.708;2024-01-27T05:12:01;2.25;;;1.90;;
1831;SDS011;1680;48.106;11.708;2024-01-27T05:14:28;5.10;;;2.03;;
1831;SDS011;1680;48.106;11.708;2024-01-27T05:16:57;2.42;;;2.00;;
1831;SDS011;1680;48.106;11.708;2024-01-27T05:19:27;4.43;;;2.00;;
1831;SDS011;1680;48.106;11.708;2024-01-27T05:21:54;2.50;;;1.88;;
1831;SDS011;1680;48.106;11.708;2024-01-27T05:24:21;2.83;;;2.03;;
1831;SDS011;1680;48.106;11.708;2024-01-27T05:26:48;2.42;;;2.10;;
1831;SDS011;1680;48.106;11.708;2024-01-27T05:29:15;3.35;;;2.40;;
1831;SDS011;1680;48.106;11.708;2024-01-27T05:31:44;2.70;;;2.20;;
1831;SDS011;1680;48.106;11.708;2024-01-27T05:34:13;3.00;;;2.30;;
1831;SDS011;1680;48.106;11.708;2024-01-27T05:36:40;4.32;;;2.50;;
1831;SDS011;1680;48.106;11.708;2024-01-27T05:39:11;5.78;;;3.08;;
1831;SDS011;1680;48.106;11.708;2024-01-27T05:41:39;3.92;;;2.85;;
1831;SDS011;1680;48.106;11.708;2024-01-27T05:44:06;4.20;;;2.72;;
1831;SDS011;1680;48.106;11.708;2024-01-27T05:46:34;3.28;;;2.10;;
1831;SDS011;1680;48.106;11.708;2024-01-27T05:49:01;3.30;;;1.75;;
1831;SDS011;1680;48.106;11.708;2024-01-27T05:51:30;2.00;;;1.80;;
1831;SDS011;1680;48.106;11.708;2024-01-27T05:53:59;2.50;;;1.77;;
1831;SDS011;1680;48.106;11.708;2024-01-27T05:56:26;2.70;;;2.10;;
1831;SDS011;1680;48.106;11.708;2024-01-27T05:58:55;5.47;;;2.08;;
1831;SDS011;1680;48.106;11.708;2024-01-27T06:01:22;3.92;;;2.70;;
1831;SDS011;1680;48.106;11.708;2024-01-27T06:03:49;3.63;;;2.70;;
1831;SDS011;1680;48.106;11.708;2024-01-27T06:06:16;3.10;;;2.53;;
1831;SDS011;1680;48.106;11.708;2024-01-27T06:08:47;5.45;;;2.83;;
1831;SDS011;1680;48.106;11.708;2024-01-27T06:11:22;3.80;;;2.40;;
1831;SDS011;1680;48.106;11.708;2024-01-27T06:13:50;4.93;;;2.75;;
1831;SDS011;1680;48.106;11.708;2024-01-27T06:16:17;4.13;;;2.45;;
1831;SDS011;1680;48.106;11.708;2024-01-27T06:18:45;3.22;;;2.60;;
1831;SDS011;1680;48.106;11.708;2024-01-27T06:21:14;2.35;;;2.15;;
1831;SDS011;1680;48.106;11.708;2024-01-27T06:23:41;8.82;;;2.55;;
1831;SDS011;1680;48.106;11.708;2024-01-27T06:26:09;3.47;;;2.13;;
1831;SDS011;1680;48.106;11.708;2024-01-27T06:28:46;3.38;;;1.85;;
1831;SDS011;1680;48.106;11.708;2024-01-27T06:31:15;2.65;;;1.77;;
1831;SDS011;1680;48.106;11.708;2024-01-27T06:33:42;4.28;;;1.98;;
1831;SDS011;1680;48.106;11.708;2024-01-27T06:36:10;4.60;;;1.85;;
1831;SDS011;1680;48.106;11.708;2024-01-27T06:38:37;3.13;;;1.90;;
1831;SDS011;1680;48.106;11.708;2024-01-27T06:41:04;5.22;;;2.35;;
1831;SDS011;1680;48.106;11.708;2024-01-27T06:43:34;2.35;;;2.00;;
1831;SDS011;1680;48.106;11.708;2024-01-27T06:46:01;2.88;;;1.98;;
1831;SDS011;1680;48.106;11.708;2024-01-27T06:48:28;3.13;;;2.03;;
1831;SDS011;1680;48.106;11.708;2024-01-27T06:50:55;2.80;;;1.70;;
1831;SDS011;1680;48.106;11.708;2024-01-27T06:53:22;2.70;;;2.00;;
1831;SDS011;1680;48.106;11.708;2024-01-27T06:55:51;3.53;;;2.15;;
1831;SDS011;1680;48.106;11.708;2024-01-27T06:58:18;2.90;;;1.88;;
1831;SDS011;1680;48.106;11.708;2024-01-27T07:00:47;2.13;;;1.67;;
1831;SDS011;1680;48.106;11.708;2024-01-27T07:03:15;2.45;;;2.00;;
1831;SDS011;1680;48.106;11.708;2024-01-27T07:05:44;2.40;;;1.80;;
1831;SDS011;1680;48.106;11.708;2024-01-27T07:08:11;4.00;;;1.80;;
1831;SDS011;1680;48.106;11.708;2024-01-27T07:10:38;3.03;;;1.85;;
1831;SDS011;1680;48.106;11.708;2024-01-27T07:13:05;3.72;;;1.80;;
1831;SDS011;1680;48.106;11.708;2024-01-27T07:15:32;3.92;;;1.95;;
1831;SDS011;1680;48.106;11.708;2024-01-27T07:18:04;2.33;;;1.80;;
1831;SDS011;1680;48.106;11.708;2024-01-27T07:20:32;3.83;;;2.30;;
1831;SDS011;1680;48.106;11.708;2024-01-27T07:23:00;2.20;;;1.92;;
1831;SDS011;1680;48.106;11.708;2024-01-27T07:25:28;2.63;;;1.92;;
1831;SDS011;1680;48.106;11.708;2024-01-27T07:27:56;4.18;;;2.40;;
1831;SDS011;1680;48.106;11.708;2024-01-27T07:30:23;3.33;;;2.45;;
1831;SDS011;1680;48.106;11.708;2024-01-27T07:32:50;3.75;;;2.30;;
1831;SDS011;1680;48.106;11.708;2024-01-27T07:35:19;3.58;;;2.40;;
1831;SDS011;1680;48.106;11.708;2024-01-27T07:37:46;3.65;;;2.35;;
1831;SDS011;1680;48.106;11.708;2024-01-27T07:40:14;5.13;;;2.50;;
1831;SDS011;1680;48.106;11.708;2024-01-27T07:42:41;3.38;;;2.13;;
1831;SDS011;1680;48.106;11.708;2024-01-27T07:45:08;3.13;;;2.45;;
1831;SDS011;1680;48.106;11.708;2024-01-27T07:47:36;4.30;;;2.60;;
1831;SDS011;1680;48.106;11.708;2024-01-27T07:50:03;3.83;;;3.00;;
1831;SDS011;1680;48.106;11.708;2024-01-27T07:52:36;3.45;;;2.78;;
1831;SDS011;1680;48.106;11.708;2024-01-27T07:55:03;2.65;;;2.45;;
1831;SDS011;1680;48.106;11.708;2024-01-27T07:57:34;4.35;;;2.80;;
1831;SDS011;1680;48.106;11.708;2024-01-27T08:00:01;5.00;;;3.20;;
1831;SDS011;1680;48.106;11.708;2024-01-27T08:02:30;4.28;;;2.90;;
1831;SDS011;1680;48.106;11.708;2024-01-27T08:04:58;3.67;;;2.88;;
1831;SDS011;1680;48.106;11.708;2024-01-27T08:07:25;3.75;;;3.10;;
1831;SDS011;1680;48.106;11.708;2024-01-27T08:09:58;4.22;;;3.10;;
1831;SDS011;1680;48.106;11.708;2024-01-27T08:12:26;4.15;;;3.75;;
1831;SDS011;1680;48.106;11.708;2024-01-27T08:14:53;6.63;;;4.00;;
1831;SDS011;1680;48.106;11.708;2024-01-27T08:17:20;7.95;;;4.40;;
1831;SDS011;1680;48.106;11.708;2024-01-27T08:19:48;5.22;;;4.70;;
1831;SDS011;1680;48.106;11.708;2024-01-27T08:22:18;6.75;;;4.55;;
1831;SDS011;1680;48.106;11.708;2024-01-27T08:24:45;7.22;;;4.32;;
1831;SDS011;1680;48.106;11.708;2024-01-27T08:27:14;5.45;;;4.95;;
1831;SDS011;1680;48.106;11.708;2024-01-27T08:29:41;5.05;;;4.38;;
1831;SDS011;1680;48.106;11.708;2024-01-27T08:32:11;6.47;;;4.32;;
1831;SDS011;1680;48.106;11.708;2024-01-27T08:34:38;5.65;;;4.18;;
1831;SDS011;1680;48.106;11.708;2024-01-27T08:37:14;7.07;;;3.70;;
1831;SDS011;1680;48.106;11.708;2024-01-27T08:39:42;4.75;;;3.90;;
1831;SDS011;1680;48.106;11.708;2024-01-27T08:42:10;4.10;;;3.65;;
1831;SDS011;1680;48.106;11.708;2024-01-27T08:44:38;6.40;;;3.90;;
1831;SDS011;1680;48.106;11.708;2024-01-27T08:47:06;5.25;;;3.70;;
1831;SDS011;1680;48.106;11.708;2024-01-27T08:49:33;4.35;;;3.95;;
1831;SDS011;1680;48.106;11.708;2024-01-27T08:52:00;7.95;;;4.13;;
1831;SDS011;1680;48.106;11.708;2024-01-27T08:54:27;7.85;;;3.80;;
1831;SDS011;1680;48.106;11.708;2024-01-27T08:56:55;5.50;;;3.67;;
1831;SDS011;1680;48.106;11.708;2024-01-27T08:59:22;5.95;;;3.92;;
1831;SDS011;1680;48.106;11.708;2024-01-27T09:01:50;4.70;;;3.75;;
1831;SDS011;1680;48.106;11.708;2024-01-27T09:04:18;7.35;;;3.95;;
1831;SDS011;1680;48.106;11.708;2024-01-27T09:06:47;7.60;;;3.55;;
1831;SDS011;1680;48.106;11.708;2024-01-27T09:09:14;7.38;;;4.65;;
1831;SDS011;1680;48.106;11.708;2024-01-27T09:11:42;7.53;;;3.92;;
1831;SDS011;1680;48.106;11.708;2024-01-27T09:14:11;4.75;;;3.80;;
1831;SDS011;1680;48.106;11.708;2024-01-27T09:16:38;4.97;;;3.65;;
1831;SDS011;1680;48.106;11.708;2024-01-27T09:19:12;6.88;;;4.40;;
1831;SDS011;1680;48.106;11.708;2024-01-27T09:21:39;4.88;;;4.25;;
1831;SDS011;1680;48.106;11.708;2024-01-27T09:24:06;7.43;;;4.40;;
1831;SDS011;1680;48.106;11.708;2024-01-27T09:26:34;10.15;;;5.07;;
1831;SDS011;1680;48.106;11.708;2024-01-27T09:29:01;5.78;;;4.53;;
1831;SDS011;1680;48.106;11.708;2024-01-27T09:31:28;8.88;;;4.43;;
1831;SDS011;1680;48.106;11.708;2024-01-27T09:33:55;7.25;;;4.63;;
1831;SDS011;1680;48.106;11.708;2024-01-27T09:36:24;5.47;;;4.43;;
1831;SDS011;1680;48.106;11.708;2024-01-27T09:38:51;5.43;;;4.38;;
1831;SDS011;1680;48.106;11.708;2024-01-27T09:41:19;8.15;;;4.80;;
1831;SDS011;1680;48.106;11.708;2024-01-27T09:43:47;8.32;;;4.20;;
1831;SDS011;1680;48.106;11.708;2024-01-27T09:46:15;8.05;;;4.72;;
1831;SDS011;1680;48.106;11.708;2024-01-27T09:48:43;6.07;;;4.63;;
1831;SDS011;1680;48.106;11.708;2024-01-27T09:51:11;5.55;;;4.43;;
1831;SDS011;1680;48.106;11.708;2024-01-27T09:53:40;6.85;;;3.95;;
1831;SDS011;1680;48.106;11.708;2024-01-27T09:56:07;4.55;;;3.60;;
1831;SDS011;1680;48.106;11.708;2024-01-27T09:58:36;5.53;;;4.03;;
1831;SDS011;1680;48.106;11.708;2024-01-27T10:01:04;9.50;;;4.70;;
1831;SDS011;1680;48.106;11.708;2024-01-27T10:03:31;4.45;;;4.05;;
1831;SDS011;1680;48.106;11.708;2024-01-27T10:06:01;6.47;;;4.20;;
1831;SDS011;1680;48.106;11.708;2024-01-27T10:08:30;8.80;;;4.18;;
1831;SDS011;1680;48.106;11.708;2024-01-27T10:10:59;5.78;;;4.05;;
1831;SDS011;1680;48.106;11.708;2024-01-27T10:13:36;7.67;;;3.90;;
1831;SDS011;1680;48.106;11.708;2024-01-27T10:16:04;6.65;;;4.05;;
1831;SDS011;1680;48.106;11.708;2024-01-27T10:18:32;8.07;;;4.65;;
1831;SDS011;1680;48.106;11.708;2024-01-27T10:21:00;7.47;;;4.50;;
1831;SDS011;1680;48.106;11.708;2024-01-27T10:23:39;6.30;;;3.73;;
1831;SDS011;1680;48.106;11.708;2024-01-27T10:26:09;7.05;;;4.45;;
1831;SDS011;1680;48.106;11.708;2024-01-27T10:28:37;5.00;;;4.10;;
1831;SDS011;1680;48.106;11.708;2024-01-27T10:31:08;6.10;;;4.03;;
1831;SDS011;1680;48.106;11.708;2024-01-27T10:33:36;4.43;;;3.47;;
1831;SDS011;1680;48.106;11.708;2024-01-27T10:36:04;6.40;;;3.90;;
1831;SDS011;1680;48.106;11.708;2024-01-27T10:38:35;7.33;;;4.07;;
1831;SDS011;1680;48.106;11.708;2024-01-27T10:41:04;9.50;;;5.10;;
1831;SDS011;1680;48.106;11.708;2024-01-27T10:43:37;7.73;;;4.90;;
1831;SDS011;1680;48.106;11.708;2024-01-27T10:46:08;6.77;;;5.50;;
1831;SDS011;1680;48.106;11.708;2024-01-27T10:48:36;7.40;;;4.20;;
1831;SDS011;1680;48.106;11.708;2024-01-27T10:51:06;5.23;;;4.20;;
1831;SDS011;1680;48.106;11.708;2024-01-27T10:53:36;7.80;;;4.70;;
1831;SDS011;1680;48.106;11.708;2024-01-27T10:56:05;9.50;;;3.77;;
1831;SDS011;1680;48.106;11.708;2024-01-27T10:58:35;6.80;;;4.20;;
1831;SDS011;1680;48.106;11.708;2024-01-27T11:01:11;9.83;;;3.80;;
1831;SDS011;1680;48.106;11.708;2024-01-27T11:03:40;8.90;;;4.20;;
1831;SDS011;1680;48.106;11.708;2024-01-27T11:06:09;9.37;;;3.67;;
1831;SDS011;1680;48.106;11.708;2024-01-27T11:08:38;9.30;;;3.60;;
1831;SDS011;1680;48.106;11.708;2024-01-27T11:11:06;8.40;;;4.60;;
1831;SDS011;1680;48.106;11.708;2024-01-27T11:13:36;7.80;;;4.20;;
1831;SDS011;1680;48.106;11.708;2024-01-27T11:16:06;8.50;;;3.83;;
1831;SDS011;1680;48.106;11.708;2024-01-27T11:18:44;4.97;;;3.58;;
1831;SDS011;1680;48.106;11.708;2024-01-27T11:21:13;4.53;;;3.10;;
1831;SDS011;1680;48.106;11.708;2024-01-27T11:23:41;7.73;;;3.90;;
1831;SDS011;1680;48.106;11.708;2024-01-27T11:26:10;9.57;;;3.80;;
1831;SDS011;1680;48.106;11.708;2024-01-27T11:28:39;6.87;;;3.90;;
1831;SDS011;1680;48.106;11.708;2024-01-27T11:31:07;6.50;;;3.70;;
1831;SDS011;1680;48.106;11.708;2024-01-27T11:33:43;4.70;;;3.73;;
1831;SDS011;1680;48.106;11.708;2024-01-27T11:36:20;4.83;;;3.50;;
1831;SDS011;1680;48.106;11.708;2024-01-27T11:38:48;5.00;;;3.53;;
1831;SDS011;1680;48.106;11.708;2024-01-27T11:41:25;6.40;;;3.20;;
1831;SDS011;1680;48.106;11.708;2024-01-27T11:43:53;6.90;;;3.97;;
1831;SDS011;1680;48.106;11.708;2024-01-27T11:46:21;6.30;;;3.77;;
1831;SDS011;1680;48.106;11.708;2024-01-27T11:48:50;6.03;;;3.93;;
1831;SDS011;1680;48.106;11.708;2024-01-27T11:51:18;8.90;;;3.50;;
1831;SDS011;1680;48.106;11.708;2024-01-27T11:53:45;3.67;;;3.00;;
1831;SDS011;1680;48.106;11.708;2024-01-27T11:56:13;5.47;;;3.10;;
1831;SDS011;1680;48.106;11.708;2024-01-27T11:58:45;10.40;;;4.10;;
1831;SDS011;1680;48.106;11.708;2024-01-27T12:01:15;7.77;;;3.50;;
1831;SDS011;1680;48.106;11.708;2024-01-27T12:03:42;4.77;;;3.20;;
1831;SDS011;1680;48.106;11.708;2024-01-27T12:06:14;3.33;;;2.90;;
1831;SDS011;1680;48.106;11.708;2024-01-27T12:08:42;5.03;;;2.80;;
1831;SDS011;1680;48.106;11.708;2024-01-27T12:11:12;5.43;;;3.17;;
1831;SDS011;1680;48.106;11.708;2024-01-27T12:13:39;8.23;;;3.67;;
1831;SDS011;1680;48.106;11.708;2024-01-27T12:16:07;7.10;;;3.10;;
1831;SDS011;1680;48.106;11.708;2024-01-27T12:18:35;5.33;;;3.10;;
1831;SDS011;1680;48.106;11.708;2024-01-27T12:21:03;6.50;;;2.80;;
1831;SDS011;1680;48.106;11.708;2024-01-27T12:23:31;6.30;;;3.13;;
1831;SDS011;1680;48.106;11.708;2024-01-27T12:25:58;4.93;;;3.80;;
1831;SDS011;1680;48.106;11.708;2024-01-27T12:28:26;7.53;;;3.30;;
1831;SDS011;1680;48.106;11.708;2024-01-27T12:30:54;5.27;;;3.00;;
1831;SDS011;1680;48.106;11.708;2024-01-27T12:33:21;7.17;;;3.20;;
1831;SDS011;1680;48.106;11.708;2024-01-27T12:35:50;3.00;;;2.60;;
1831;SDS011;1680;48.106;11.708;2024-01-27T12:38:19;4.87;;;3.37;;
1831;SDS011;1680;48.106;11.708;2024-01-27T12:40:48;4.63;;;2.27;;
1831;SDS011;1680;48.106;11.708;2024-01-27T12:43:15;5.53;;;2.90;;
1831;SDS011;1680;48.106;11.708;2024-01-27T12:45:42;6.43;;;2.90;;
1831;SDS011;1680;48.106;11.708;2024-01-27T12:48:11;3.27;;;2.17;;
1831;SDS011;1680;48.106;11.708;2024-01-27T12:50:39;5.43;;;2.33;;
1831;SDS011;1680;48.106;11.708;2024-01-27T12:53:08;5.27;;;3.17;;
1831;SDS011;1680;48.106;11.708;2024-01-27T12:55:35;2.53;;;2.30;;
1831;SDS011;1680;48.106;11.708;2024-01-27T12:58:04;5.60;;;3.40;;
1831;SDS011;1680;48.106;11.708;2024-01-27T13:00:31;7.03;;;3.50;;
1831;SDS011;1680;48.106;11.708;2024-01-27T13:03:08;3.20;;;2.70;;
1831;SDS011;1680;48.106;11.708;2024-01-27T13:05:35;4.53;;;2.57;;
1831;SDS011;1680;48.106;11.708;2024-01-27T13:08:03;4.80;;;2.47;;
1831;SDS011;1680;48.106;11.708;2024-01-27T13:10:33;4.20;;;2.63;;
1831;SDS011;1680;48.106;11.708;2024-01-27T13:13:00;6.00;;;2.83;;
1831;SDS011;1680;48.106;11.708;2024-01-27T13:15:31;3.40;;;2.60;;
1831;SDS011;1680;48.106;11.708;2024-01-27T13:17:59;7.57;;;2.47;;
1831;SDS011;1680;48.106;11.708;2024-01-27T13:20:26;3.63;;;3.00;;
1831;SDS011;1680;48.106;11.708;2024-01-27T13:22:53;6.07;;;2.70;;
1831;SDS011;1680;48.106;11.708;2024-01-27T13:25:20;5.93;;;2.87;;
1831;SDS011;1680;48.106;11.708;2024-01-27T13:27:48;4.90;;;2.93;;
1831;SDS011;1680;48.106;11.708;2024-01-27T13:30:15;7.50;;;2.90;;
1831;SDS011;1680;48.106;11.708;2024-01-27T13:32:45;5.60;;;2.60;;
1831;SDS011;1680;48.106;11.708;2024-01-27T13:35:12;3.50;;;2.33;;
1831;SDS011;1680;48.106;11.708;2024-01-27T13:37:39;2.87;;;2.13;;
1831;SDS011;1680;48.106;11.708;2024-01-27T13:40:07;3.53;;;2.00;;
1831;SDS011;1680;48.106;11.708;2024-01-27T13:42:36;4.80;;;2.00;;
1831;SDS011;1680;48.106;11.708;2024-01-27T13:45:05;3.27;;;2.50;;
1831;SDS011;1680;48.106;11.708;2024-01-27T13:47:33;4.03;;;2.30;;
1831;SDS011;1680;48.106;11.708;2024-01-27T13:50:02;3.60;;;3.20;;
1831;SDS011;1680;48.106;11.708;2024-01-27T13:52:30;6.23;;;2.50;;
1831;SDS011;1680;48.106;11.708;2024-01-27T13:54:58;4.27;;;2.57;;
1831;SDS011;1680;48.106;11.708;2024-01-27T13:57:26;5.60;;;2.60;;
1831;SDS011;1680;48.106;11.708;2024-01-27T13:59:53;6.93;;;2.50;;
1831;SDS011;1680;48.106;11.708;2024-01-27T14:02:20;8.00;;;2.87;;
1831;SDS011;1680;48.106;11.708;2024-01-27T14:04:48;10.27;;;3.97;;
1831;SDS011;1680;48.106;11.708;2024-01-27T14:07:17;4.80;;;2.60;;
1831;SDS011;1680;48.106;11.708;2024-01-27T14:09:44;2.90;;;2.20;;
1831;SDS011;1680;48.106;11.708;2024-01-27T14:12:13;3.40;;;3.00;;
1831;SDS011;1680;48.106;11.708;2024-01-27T14:14:41;6.63;;;2.60;;
1831;SDS011;1680;48.106;11.708;2024-01-27T14:17:08;3.53;;;2.60;;
1831;SDS011;1680;48.106;11.708;2024-01-27T14:19:36;5.43;;;3.00;;
1831;SDS011;1680;48.106;11.708;2024-01-27T14:22:03;4.27;;;2.70;;
1831;SDS011;1680;48.106;11.708;2024-01-27T14:24:32;7.20;;;2.60;;
1831;SDS011;1680;48.106;11.708;2024-01-27T14:27:00;5.43;;;2.70;;
1831;SDS011;1680;48.106;11.708;2024-01-27T14:29:27;3.43;;;2.30;;
1831;SDS011;1680;48.106;11.708;2024-01-27T14:31:54;5.50;;;3.77;;
1831;SDS011;1680;48.106;11.708;2024-01-27T14:34:21;4.60;;;3.33;;
1831;SDS011;1680;48.106;11.708;2024-01-27T14:36:48;5.57;;;3.00;;
1831;SDS011;1680;48.106;11.708;2024-01-27T14:39:15;4.00;;;2.77;;
1831;SDS011;1680;48.106;11.708;2024-01-27T14:41:44;4.30;;;3.13;;
1831;SDS011;1680;48.106;11.708;2024-01-27T14:44:11;3.63;;;2.87;;
1831;SDS011;1680;48.106;11.708;2024-01-27T14:46:40;5.07;;;2.50;;
1831;SDS011;1680;48.106;11.708;2024-01-27T14:49:07;5.47;;;3.53;;
1831;SDS011;1680;48.106;11.708;2024-01-27T14:51:34;5.50;;;3.93;;
1831;SDS011;1680;48.106;11.708;2024-01-27T14:54:01;2.90;;;2.50;;
1831;SDS011;1680;48.106;11.708;2024-01-27T14:56:29;2.70;;;2.50;;
1831;SDS011;1680;48.106;11.708;2024-01-27T14:58:58;3.43;;;2.70;;
1831;SDS011;1680;48.106;11.708;2024-01-27T15:01:26;3.50;;;2.60;;
1831;SDS011;1680;48.106;11.708;2024-01-27T15:03:53;3.83;;;2.90;;
1831;SDS011;1680;48.106;11.708;2024-01-27T15:06:20;3.80;;;3.17;;